createdAt,value
2018-09-05T00:00:39.607Z,102270.53
2018-09-05T00:03:08.739Z,102270.27
2018-09-05T00:05:37.911Z,102263.97
2018-09-05T00:08:07.133Z,102267.00
2018-09-05T00:10:36.909Z,102266.73
2018-09-05T00:13:06.282Z,102266.76
2018-09-05T00:15:35.372Z,102265.12
2018-09-05T00:18:04.542Z,102264.05
2018-09-05T00:20:33.633Z,102272.59
2018-09-05T00:23:02.878Z,102269.31
2018-09-05T00:25:32.030Z,102278.66
2018-09-05T00:28:01.208Z,102275.08
2018-09-05T00:30:30.351Z,102275.91
2018-09-05T00:32:59.609Z,102270.15
2018-09-05T00:35:28.683Z,102278.94
2018-09-05T00:37:57.793Z,102276.47
2018-09-05T00:40:26.889Z,102280.03
2018-09-05T00:42:55.974Z,102274.84
2018-09-05T00:45:24.987Z,102275.09
2018-09-05T00:47:54.691Z,102272.35
2018-09-05T00:50:24.819Z,102272.36
2018-09-05T00:52:53.929Z,102271.80
2018-09-05T00:55:23.039Z,102273.72
2018-09-05T00:57:52.203Z,102272.62
2018-09-05T01:00:21.377Z,102273.99
2018-09-05T01:02:50.530Z,102273.42
2018-09-05T01:05:19.582Z,102270.67
2018-09-05T01:07:48.725Z,102274.27
2018-09-05T01:10:17.873Z,102274.53
2018-09-05T01:12:47.099Z,102272.59
2018-09-05T01:15:16.273Z,102275.33
2018-09-05T01:17:45.451Z,102278.06
2018-09-05T01:20:15.652Z,102281.08
2018-09-05T01:22:44.785Z,102279.16
2018-09-05T01:25:13.867Z,102277.22
2018-09-05T01:27:43.014Z,102276.68
2018-09-05T01:30:12.138Z,102281.31
2018-09-05T01:32:42.431Z,102278.03
2018-09-05T01:35:11.550Z,102274.19
2018-09-05T01:37:40.814Z,102268.97
2018-09-05T01:40:09.908Z,102266.23
2018-09-05T01:42:39.098Z,102261.55
2018-09-05T01:45:08.278Z,102264.31
2018-09-05T01:47:37.449Z,102258.55
2018-09-05T01:50:07.042Z,102254.17
2018-09-05T01:52:36.138Z,102250.33
2018-09-05T01:55:05.323Z,102255.55
2018-09-05T01:57:34.435Z,102249.78
2018-09-05T02:00:03.591Z,102250.32
2018-09-05T02:02:32.629Z,102246.48
2018-09-05T02:05:01.907Z,102250.30
2018-09-05T02:07:30.925Z,102242.09
2018-09-05T02:09:59.991Z,102244.81
2018-09-05T02:12:29.233Z,102244.27
2018-09-05T02:14:58.355Z,102245.35
2018-09-05T02:17:27.408Z,102249.19
2018-09-05T02:19:56.504Z,102249.11
2018-09-05T02:22:25.934Z,102244.72
2018-09-05T02:24:55.056Z,102235.11
2018-09-05T02:27:24.124Z,102243.36
2018-09-05T02:29:53.182Z,102241.18
2018-09-05T02:32:22.268Z,102239.81
2018-09-05T02:34:51.706Z,102235.99
2018-09-05T02:37:20.719Z,102240.39
2018-09-05T02:39:49.769Z,102236.86
2018-09-05T02:42:18.801Z,102237.13
2018-09-05T02:44:47.903Z,102230.84
2018-09-05T02:47:17.022Z,102231.38
2018-09-05T02:49:46.178Z,102230.01
2018-09-05T02:52:15.267Z,102227.83
2018-09-05T02:54:44.291Z,102224.25
2018-09-05T02:57:13.423Z,102220.14
2018-09-05T02:59:42.588Z,102217.41
2018-09-05T03:02:11.727Z,102224.53
2018-09-05T03:04:40.801Z,102227.27
2018-09-05T03:07:09.823Z,102219.32
2018-09-05T03:09:39.028Z,102230.29
2018-09-05T03:12:08.404Z,102229.20
2018-09-05T03:14:37.399Z,102229.75
2018-09-05T03:17:06.591Z,102226.18
2018-09-05T03:19:36.204Z,102226.75
2018-09-05T03:22:05.318Z,102222.38
2018-09-05T03:24:34.464Z,102221.84
2018-09-05T03:27:03.588Z,102223.20
2018-09-05T03:29:32.607Z,102224.01
2018-09-05T03:32:01.637Z,102225.67
2018-09-05T03:34:30.665Z,102236.67
2018-09-05T03:36:59.669Z,102236.66
2018-09-05T03:39:28.762Z,102239.69
2018-09-05T03:41:57.799Z,102239.13
2018-09-05T03:44:26.860Z,102244.91
2018-09-05T03:46:55.848Z,102249.83
2018-09-05T03:49:24.960Z,102244.32
2018-09-05T03:51:54.348Z,102244.63
2018-09-05T03:54:24.276Z,102239.40
2018-09-05T03:56:53.320Z,102249.85
2018-09-05T03:59:23.291Z,102237.77
2018-09-05T04:01:52.380Z,102234.72
2018-09-05T04:04:21.416Z,102238.84
2018-09-05T04:06:50.435Z,102237.75
2018-09-05T04:09:19.503Z,102241.03
2018-09-05T04:11:48.496Z,102244.34
2018-09-05T04:14:17.581Z,102244.08
2018-09-05T04:16:46.688Z,102246.53
2018-09-05T04:19:15.672Z,102249.27
2018-09-05T04:21:44.863Z,102250.09
2018-09-05T04:24:14.340Z,102244.34
2018-09-05T04:26:43.355Z,102246.52
2018-09-05T04:29:12.396Z,102245.44
2018-09-05T04:31:42.035Z,102252.55
2018-09-05T04:34:11.097Z,102252.00
2018-09-05T04:36:40.201Z,102255.30
2018-09-05T04:39:10.483Z,102255.31
2018-09-05T04:41:40.761Z,102258.08
2018-09-05T04:44:09.928Z,102258.89
2018-09-05T04:46:38.994Z,102255.04
2018-09-05T04:49:08.066Z,102263.57
2018-09-05T04:51:37.832Z,102267.39
2018-09-05T04:54:07.072Z,102254.52
2018-09-05T04:56:36.214Z,102268.23
2018-09-05T04:59:05.324Z,102272.08
2018-09-05T05:01:34.399Z,102269.33
2018-09-05T05:04:03.536Z,102275.66
2018-09-05T05:06:33.391Z,102270.16
2018-09-05T05:09:02.497Z,102272.08
2018-09-05T05:11:31.528Z,102281.69
2018-09-05T05:14:01.160Z,102278.41
2018-09-05T05:16:30.232Z,102282.23
2018-09-05T05:18:59.283Z,102282.24
2018-09-05T05:21:28.428Z,102283.63
2018-09-05T05:23:57.497Z,102282.48
2018-09-05T05:26:26.548Z,102282.23
2018-09-05T05:28:55.641Z,102281.66
2018-09-05T05:31:24.841Z,102290.45
2018-09-05T05:33:53.982Z,102288.81
2018-09-05T05:36:22.993Z,102289.91
2018-09-05T05:38:52.098Z,102281.13
2018-09-05T05:41:21.510Z,102290.73
2018-09-05T05:43:50.601Z,102290.72
2018-09-05T05:46:19.813Z,102295.66
2018-09-05T05:48:48.849Z,102297.59
2018-09-05T05:51:18.898Z,102302.26
2018-09-05T05:53:47.937Z,102290.73
2018-09-05T05:56:16.933Z,102306.09
2018-09-05T05:58:45.987Z,102306.91
2018-09-05T06:01:15.082Z,102307.20
2018-09-05T06:03:44.104Z,102313.48
2018-09-05T06:06:13.193Z,102307.46
2018-09-05T06:08:42.221Z,102310.17
2018-09-05T06:11:11.279Z,102306.91
2018-09-05T06:13:40.361Z,102316.50
2018-09-05T06:16:09.362Z,102312.91
2018-09-05T06:18:38.796Z,102313.77
2018-09-05T06:21:07.929Z,102308.83
2018-09-05T06:23:36.977Z,102310.20
2018-09-05T06:26:06.187Z,102314.86
2018-09-05T06:28:38.787Z,102319.00
2018-09-05T06:31:18.556Z,102324.78
2018-09-05T06:36:23.397Z,102332.19
2018-09-05T06:38:52.448Z,102332.73
2018-09-05T06:41:21.419Z,102336.62
2018-09-05T06:43:50.411Z,102334.16
2018-09-05T06:46:19.811Z,102338.83
2018-09-05T06:48:48.900Z,102341.58
2018-09-05T06:51:19.082Z,102341.83
2018-09-05T06:53:48.272Z,102354.45
2018-09-05T06:56:18.122Z,102352.77
2018-09-05T06:58:47.746Z,102346.39
2018-09-05T07:01:17.002Z,102350.39
2018-09-05T07:03:46.411Z,102341.04
2018-09-05T07:06:15.460Z,102343.08
2018-09-05T07:08:44.465Z,102343.02
2018-09-05T07:11:20.701Z,102343.75
2018-09-05T07:13:50.071Z,102335.95
2018-09-05T07:16:19.253Z,102331.53
2018-09-05T07:18:48.364Z,102331.34
2018-09-05T07:21:17.482Z,102337.65
2018-09-05T07:23:46.607Z,102336.55
2018-09-05T07:26:15.668Z,102344.20
2018-09-05T07:28:44.713Z,102336.50
2018-09-05T07:31:13.941Z,102336.88
2018-09-05T07:33:43.007Z,102335.84
2018-09-05T07:36:13.073Z,102347.23
2018-09-05T07:38:42.320Z,102346.16
2018-09-05T07:41:11.629Z,102347.90
2018-09-05T07:43:40.849Z,102340.86
2018-09-05T07:46:09.931Z,102341.87
2018-09-05T07:48:39.371Z,102340.25
2018-09-05T07:51:08.739Z,102336.44
2018-09-05T07:53:42.897Z,102332.25
2018-09-05T07:56:22.487Z,102334.81
2018-09-05T07:58:54.579Z,102335.27
2018-09-05T08:01:23.741Z,102335.50
2018-09-05T08:03:55.290Z,102339.42
2018-09-05T08:06:25.817Z,102346.83
2018-09-05T08:08:54.883Z,102341.44
2018-09-05T08:11:24.380Z,102340.25
2018-09-05T08:13:53.525Z,102347.45
2018-09-05T08:16:22.722Z,102352.55
2018-09-05T08:18:52.891Z,102349.25
2018-09-05T08:21:22.072Z,102349.53
2018-09-05T08:23:52.013Z,102353.61
2018-09-05T08:26:21.225Z,102352.40
2018-09-05T08:28:50.399Z,102351.80
2018-09-05T08:31:22.887Z,102351.35
2018-09-05T08:33:57.537Z,102348.11
2018-09-05T08:36:27.283Z,102350.55
2018-09-05T08:38:57.994Z,102352.39
2018-09-05T08:41:29.541Z,102351.45
2018-09-05T08:43:59.159Z,102351.19
2018-09-05T08:46:28.567Z,102344.33
2018-09-05T08:49:12.589Z,102349.54
2018-09-05T08:51:43.047Z,102344.65
2018-09-05T08:54:12.336Z,102344.98
2018-09-05T08:56:41.469Z,102344.98
2018-09-05T08:59:10.986Z,102338.37
2018-09-05T09:01:40.331Z,102343.91
2018-09-05T09:04:09.532Z,102339.23
2018-09-05T09:06:38.692Z,102346.53
2018-09-05T09:09:09.827Z,102347.94
2018-09-05T09:11:40.132Z,102335.73
2018-09-05T09:14:10.097Z,102340.53
2018-09-05T09:16:39.354Z,102343.56
2018-09-05T09:19:08.801Z,102341.41
2018-09-05T09:21:38.387Z,102339.50
2018-09-05T09:38:04.817Z,102335.34
2018-09-05T09:40:33.913Z,102339.31
2018-09-05T09:43:03.104Z,102336.88
2018-09-05T09:45:32.220Z,102326.20
2018-09-05T09:48:01.358Z,102323.69
2018-09-05T09:50:31.136Z,102325.84
2018-09-05T09:53:00.768Z,102328.23
2018-09-05T09:55:29.990Z,102323.23
2018-09-05T09:57:59.131Z,102323.50
2018-09-05T10:00:33.163Z,102326.25
2018-09-05T10:03:07.454Z,102321.55
2018-09-05T10:05:49.083Z,102318.58
2018-09-05T10:08:23.362Z,102324.47
2018-09-05T10:10:57.356Z,102318.42
2018-09-05T10:13:31.982Z,102331.43
2018-09-05T10:16:05.991Z,102316.08
2018-09-05T10:18:38.285Z,102308.30
2018-09-05T10:21:07.645Z,102313.73
2018-09-05T10:23:36.879Z,102299.38
2018-09-05T10:26:09.982Z,102306.55
2018-09-05T10:28:39.121Z,102294.98
2018-09-05T10:31:08.252Z,102299.17
2018-09-05T10:33:38.415Z,102302.53
2018-09-05T10:36:08.555Z,102304.29
2018-09-05T10:38:37.630Z,102299.12
2018-09-05T10:41:07.353Z,102296.64
2018-09-05T10:43:36.453Z,102298.90
2018-09-05T10:46:06.988Z,102298.36
2018-09-05T10:48:36.925Z,102302.50
2018-09-05T10:51:06.186Z,102301.67
2018-09-05T10:53:35.749Z,102294.78
2018-09-05T10:56:06.986Z,102294.53
2018-09-05T10:58:36.321Z,102298.13
2018-09-05T11:01:05.976Z,102296.22
2018-09-05T11:03:47.610Z,102297.02
2018-09-05T11:06:16.986Z,102291.77
2018-09-05T11:08:46.731Z,102292.24
2018-09-05T11:11:15.939Z,102291.35
2018-09-05T11:13:47.518Z,102296.61
2018-09-05T11:16:16.781Z,102299.09
2018-09-05T11:18:47.316Z,102296.08
2018-09-05T11:21:16.581Z,102295.23
2018-09-05T11:23:46.053Z,102296.02
2018-09-05T11:26:15.828Z,102289.61
2018-09-05T11:28:45.047Z,102289.00
2018-09-05T11:31:14.078Z,102288.69
2018-09-05T11:33:43.437Z,102289.20
2018-09-05T11:36:12.572Z,102284.23
2018-09-05T11:38:41.939Z,102288.63
2018-09-05T11:41:14.341Z,102275.68
2018-09-05T11:43:43.953Z,102274.83
2018-09-05T11:46:15.806Z,102277.04
2018-09-05T11:48:44.884Z,102273.97
2018-09-05T11:51:13.974Z,102268.68
2018-09-05T11:53:43.069Z,102270.29
2018-09-05T11:56:12.218Z,102270.84
2018-09-05T11:58:41.271Z,102268.13
2018-09-05T12:01:11.259Z,102261.85
2018-09-05T12:03:40.502Z,102258.02
2018-09-05T12:06:09.681Z,102256.05
2018-09-05T12:08:38.845Z,102263.77
2018-09-05T12:11:09.006Z,102261.02
2018-09-05T12:13:38.032Z,102262.41
2018-09-05T12:16:08.071Z,102259.64
2018-09-05T12:18:37.275Z,102261.85
2018-09-05T12:21:06.973Z,102267.37
2018-09-05T12:23:36.960Z,102262.16
2018-09-05T12:26:06.934Z,102260.49
2018-09-05T12:28:36.157Z,102260.80
2018-09-05T12:31:05.977Z,102262.47
2018-09-05T12:33:35.557Z,102266.31
2018-09-05T12:36:07.354Z,102261.33
2018-09-05T12:38:37.552Z,102265.71
2018-09-05T12:41:08.508Z,102261.64
2018-09-05T12:43:37.793Z,102260.24
2018-09-05T12:46:06.837Z,102255.73
2018-09-05T12:48:35.947Z,102260.03
2018-09-05T12:51:05.143Z,102269.95
2018-09-05T12:53:34.406Z,102262.48
2018-09-05T12:56:03.579Z,102271.54
2018-09-05T12:58:32.957Z,102268.85
2018-09-05T13:01:02.204Z,102266.95
2018-09-05T13:03:35.935Z,102269.39
2018-09-05T13:06:06.099Z,102266.98
2018-09-05T13:08:47.043Z,102267.23
2018-09-05T13:11:24.134Z,102259.73
2018-09-05T13:13:53.392Z,102256.12
2018-09-05T13:16:22.413Z,102261.28
2018-09-05T13:18:51.448Z,102252.98
2018-09-05T13:24:01.736Z,102257.27
2018-09-05T13:26:30.823Z,102253.88
2018-09-05T13:29:00.060Z,102247.73
2018-09-05T13:31:29.132Z,102246.27
2018-09-05T13:33:58.233Z,102244.95
2018-09-05T13:36:28.029Z,102244.37
2018-09-05T13:38:57.991Z,102234.41
2018-09-05T13:41:27.992Z,102243.52
2018-09-05T13:43:58.933Z,102244.32
2018-09-05T13:46:28.967Z,102234.08
2018-09-05T13:48:58.180Z,102235.21
2018-09-05T13:51:27.269Z,102227.78
2018-09-05T13:53:56.368Z,102228.64
2018-09-05T13:56:25.839Z,102231.42
2018-09-05T13:58:55.143Z,102218.76
2018-09-05T14:01:24.500Z,102219.89
2018-09-05T14:03:54.531Z,102226.84
2018-09-05T14:06:23.780Z,102228.22
2018-09-05T14:08:52.959Z,102221.27
2018-09-05T14:11:22.078Z,102216.22
2018-09-05T14:13:58.103Z,102217.05
2018-09-05T14:16:27.440Z,102219.80
2018-09-05T14:18:56.622Z,102214.53
2018-09-05T14:21:26.078Z,102208.19
2018-09-05T14:23:55.380Z,102208.77
2018-09-05T14:26:24.544Z,102205.40
2018-09-05T14:28:54.641Z,102202.91
2018-09-05T14:31:25.386Z,102204.30
2018-09-05T14:33:54.832Z,102201.28
2018-09-05T14:36:24.763Z,102196.92
2018-09-05T14:38:53.868Z,102199.41
2018-09-05T14:41:23.156Z,102200.79
2018-09-05T14:43:52.999Z,102199.11
2018-09-05T14:46:22.130Z,102196.92
2018-09-05T14:48:51.205Z,102204.43
2018-09-05T14:51:22.000Z,102193.48
2018-09-05T14:53:56.394Z,102196.63
2018-09-05T14:56:25.509Z,102203.87
2018-09-05T14:58:54.607Z,102202.80
2018-09-05T15:01:23.681Z,102201.19
2018-09-05T15:03:53.028Z,102200.13
2018-09-05T15:06:30.992Z,102194.67
2018-09-05T15:08:59.983Z,102193.23
2018-09-05T15:11:29.120Z,102196.22
2018-09-05T15:13:58.385Z,102186.27
2018-09-05T15:16:27.612Z,102195.34
2018-09-05T15:18:56.647Z,102196.67
2018-09-05T15:21:25.653Z,102189.22
2018-09-05T15:23:54.690Z,102185.94
2018-09-05T15:26:23.809Z,102185.94
2018-09-05T15:28:53.052Z,102190.59
2018-09-05T15:31:22.558Z,102181.47
2018-09-05T15:33:51.848Z,102190.27
2018-09-05T15:36:21.975Z,102188.06
2018-09-05T15:38:51.073Z,102180.09
2018-09-05T15:41:21.313Z,102178.71
2018-09-05T15:43:51.445Z,102171.28
2018-09-05T15:46:21.086Z,102173.80
2018-09-05T15:48:52.312Z,102177.36
2018-09-05T15:51:23.505Z,102174.88
2018-09-05T15:53:53.715Z,102179.84
2018-09-05T15:56:22.954Z,102174.34
2018-09-05T15:58:52.228Z,102177.72
2018-09-05T16:01:23.882Z,102167.83
2018-09-05T16:04:00.843Z,102172.85
2018-09-05T16:06:30.950Z,102172.34
2018-09-05T16:09:17.916Z,102171.52
2018-09-05T16:11:48.151Z,102169.63
2018-09-05T16:14:17.411Z,102172.70
2018-09-05T16:16:54.025Z,102160.84
2018-09-05T16:19:23.442Z,102163.34
2018-09-05T16:24:25.719Z,102155.37
2018-09-05T16:26:55.094Z,102151.54
2018-09-05T16:29:26.307Z,102150.46
2018-09-05T16:31:55.448Z,102156.85
2018-09-05T16:34:24.591Z,102155.24
2018-09-05T16:36:53.584Z,102157.55
2018-09-05T16:39:22.713Z,102163.44
2018-09-05T16:41:51.901Z,102156.58
2018-09-05T16:44:20.966Z,102152.20
2018-09-05T16:46:50.408Z,102165.45
2018-09-05T16:49:20.603Z,102155.56
2018-09-05T16:51:49.721Z,102156.13
2018-09-05T16:54:18.888Z,102158.08
2018-09-05T16:56:47.959Z,102159.48
2018-09-05T16:59:17.077Z,102158.70
2018-09-05T17:01:46.201Z,102157.89
2018-09-05T17:04:15.295Z,102152.42
2018-09-05T17:06:44.356Z,102160.46
2018-09-05T17:09:13.945Z,102159.10
2018-09-05T17:11:43.187Z,102154.73
2018-09-05T17:14:13.219Z,102162.22
2018-09-05T17:16:42.482Z,102154.52
2018-09-05T17:19:11.550Z,102160.88
2018-09-05T17:21:40.611Z,102163.38
2018-09-05T17:24:09.753Z,102165.34
2018-09-05T17:26:38.956Z,102167.04
2018-09-05T17:29:08.626Z,102158.23
2018-09-05T17:31:38.040Z,102163.25
2018-09-05T17:34:07.282Z,102162.18
2018-09-05T17:36:36.580Z,102166.63
2018-09-05T17:39:08.394Z,102165.30
2018-09-05T17:41:37.488Z,102161.48
2018-09-05T17:44:06.535Z,102164.27
2018-09-05T17:46:35.666Z,102162.91
2018-09-05T17:49:04.918Z,102162.41
2018-09-05T17:51:35.017Z,102149.50
2018-09-05T17:54:04.502Z,102156.72
2018-09-05T17:56:33.621Z,102163.06
2018-09-05T17:59:02.726Z,102160.88
2018-09-05T18:01:32.806Z,102158.96
2018-09-05T18:04:01.853Z,102155.42
2018-09-05T18:06:30.855Z,102158.22
2018-09-05T18:08:59.884Z,102154.68
2018-09-05T18:11:28.955Z,102156.61
2018-09-05T18:13:58.055Z,102152.78
2018-09-05T18:16:27.057Z,102156.95
2018-09-05T18:18:56.253Z,102157.25
2018-09-05T18:21:25.534Z,102159.75
2018-09-05T18:23:54.682Z,102162.27
2018-09-05T18:26:24.255Z,102168.05
2018-09-05T18:28:53.384Z,102161.22
2018-09-05T18:31:22.410Z,102160.97
2018-09-05T18:33:51.737Z,102160.43
2018-09-05T18:36:20.720Z,102165.39
2018-09-05T18:38:49.871Z,102168.15
2018-09-05T18:41:19.068Z,102158.27
2018-09-05T18:43:48.722Z,102167.64
2018-09-05T18:46:18.061Z,102165.73
2018-09-05T18:48:47.107Z,102165.77
2018-09-05T18:51:17.693Z,102167.43
2018-09-05T18:53:46.892Z,102164.43
2018-09-05T18:56:15.932Z,102169.13
2018-09-05T18:58:45.318Z,102174.66
2018-09-05T19:01:14.380Z,102175.77
2018-09-05T19:03:43.425Z,102182.11
2018-09-05T19:06:12.573Z,102178.30
2018-09-05T19:08:41.859Z,102183.81
2018-09-05T19:11:11.851Z,102182.47
2018-09-05T19:13:41.202Z,102187.44
2018-09-05T19:16:10.241Z,102190.77
2018-09-05T19:18:40.649Z,102179.82
2018-09-05T19:21:09.827Z,102179.80
2018-09-05T19:23:40.459Z,102183.66
2018-09-05T19:26:10.533Z,102188.86
2018-09-05T19:28:39.719Z,102194.34
2018-09-05T19:31:08.910Z,102193.27
2018-09-05T19:33:38.956Z,102195.47
2018-09-05T19:36:08.081Z,102198.75
2018-09-05T19:38:37.145Z,102207.25
2018-09-05T19:41:06.276Z,102213.03
2018-09-05T19:43:35.339Z,102210.83
2018-09-05T19:46:05.078Z,102205.88
2018-09-05T19:48:34.580Z,102214.68
2018-09-05T19:51:03.693Z,102216.89
2018-09-05T19:53:32.772Z,102216.33
2018-09-05T19:56:01.817Z,102212.77
2018-09-05T19:58:30.876Z,102214.71
2018-09-05T20:00:59.877Z,102215.26
2018-09-05T20:03:28.951Z,102214.14
2018-09-05T20:05:58.169Z,102213.86
2018-09-05T20:08:27.316Z,102206.73
2018-09-05T20:11:07.692Z,102200.42
2018-09-05T20:13:36.850Z,102203.17
2018-09-05T20:16:06.015Z,102199.89
2018-09-05T20:18:35.040Z,102200.41
2018-09-05T20:21:04.285Z,102203.44
2018-09-05T20:23:33.467Z,102201.53
2018-09-05T20:26:02.451Z,102208.11
2018-09-05T20:28:31.462Z,102202.33
2018-09-05T20:31:00.657Z,102199.84
2018-09-05T20:33:29.663Z,102200.66
2018-09-05T20:35:58.751Z,102192.98
2018-09-05T20:38:28.746Z,102199.84
2018-09-05T20:40:58.278Z,102202.31
2018-09-05T20:43:27.377Z,102193.25
2018-09-05T20:45:56.588Z,102198.75
2018-09-05T20:48:25.819Z,102202.60
2018-09-05T20:50:54.905Z,102200.13
2018-09-05T20:53:24.038Z,102198.22
2018-09-05T20:55:53.218Z,102203.42
2018-09-05T20:58:22.409Z,102202.59
2018-09-05T21:00:51.742Z,102196.30
2018-09-05T21:03:23.398Z,102192.45
2018-09-05T21:05:52.476Z,102206.98
2018-09-05T21:08:21.606Z,102205.63
2018-09-05T21:10:50.712Z,102214.66
2018-09-05T21:13:20.719Z,102204.77
2018-09-05T21:15:49.780Z,102212.44
2018-09-05T21:18:19.055Z,102209.70
2018-09-05T21:20:48.424Z,102206.69
2018-09-05T21:23:17.602Z,102212.98
2018-09-05T21:25:47.694Z,102215.12
2018-09-05T21:28:16.744Z,102214.53
2018-09-05T21:30:45.782Z,102211.77
2018-09-05T21:33:14.902Z,102218.62
2018-09-05T21:35:43.946Z,102222.17
2018-09-05T21:38:13.951Z,102224.38
2018-09-05T21:40:43.186Z,102229.84
2018-09-05T21:43:12.313Z,102227.66
2018-09-05T21:45:41.427Z,102230.97
2018-09-05T21:48:10.664Z,102234.56
2018-09-05T21:50:40.976Z,102228.51
2018-09-05T21:53:10.041Z,102229.90
2018-09-05T21:55:39.169Z,102229.61
2018-09-05T21:58:08.209Z,102222.19
2018-09-05T22:00:37.483Z,102229.33
2018-09-05T22:03:06.769Z,102220.82
2018-09-05T22:05:35.928Z,102225.72
2018-09-05T22:08:09.422Z,102232.30
2018-09-05T22:10:38.600Z,102228.76
2018-09-05T22:13:07.705Z,102233.67
2018-09-05T22:15:42.106Z,102232.02
2018-09-05T22:18:11.103Z,102234.48
2018-09-05T22:20:54.719Z,102228.98
2018-09-05T22:23:23.808Z,102229.82
2018-09-05T22:26:06.773Z,102231.73
2018-09-05T22:28:50.783Z,102231.19
2018-09-05T22:31:19.991Z,102228.20
2018-09-05T22:34:03.573Z,102222.16
2018-09-05T22:36:46.895Z,102221.86
2018-09-05T22:39:28.663Z,102215.84
2018-09-05T22:41:57.793Z,102215.87
2018-09-05T22:44:45.075Z,102213.39
2018-09-05T22:47:33.966Z,102217.47
2018-09-05T22:50:28.634Z,102223.20
2018-09-05T22:53:22.236Z,102208.97
2018-09-05T23:00:20.644Z,102211.17
2018-09-05T23:04:09.670Z,102203.79
2018-09-05T23:07:19.985Z,102209.25
2018-09-05T23:09:59.711Z,102209.25
2018-09-05T23:12:46.657Z,102204.05
2018-09-05T23:16:28.286Z,102203.80
2018-09-05T23:21:17.056Z,102206.29
2018-09-05T23:23:59.871Z,102209.03
2018-09-05T23:26:29.175Z,102213.37
2018-09-05T23:28:58.327Z,102214.97
2018-09-05T23:31:27.566Z,102208.59
2018-09-05T23:33:56.748Z,102204.95
2018-09-05T23:36:26.200Z,102211.78
2018-09-05T23:38:55.311Z,102203.01
2018-09-05T23:41:24.388Z,102204.62
2018-09-05T23:43:53.495Z,102194.45
2018-09-05T23:46:22.556Z,102199.03
2018-09-05T23:48:51.685Z,102193.56
2018-09-05T23:51:20.749Z,102186.16
2018-09-05T23:53:49.754Z,102193.86
2018-09-05T23:56:18.921Z,102182.16
2018-09-05T23:58:48.038Z,102183.58
